createdAt,value
2022-11-02T00:02:52.038Z,81.76
2022-11-02T00:05:55.113Z,82.42
2022-11-02T00:08:57.654Z,82.81
2022-11-02T00:12:00.294Z,83.04
2022-11-02T00:15:02.874Z,80.67
2022-11-02T00:18:11.080Z,81.16
2022-11-02T00:21:14.410Z,83.00
2022-11-02T00:24:16.986Z,82.85
2022-11-02T00:27:19.625Z,82.39
2022-11-02T00:30:22.699Z,81.50
2022-11-02T00:33:27.139Z,81.83
2022-11-02T00:36:31.196Z,83.38
2022-11-02T00:39:33.783Z,81.49
2022-11-02T00:42:36.321Z,80.87
2022-11-02T00:45:38.967Z,82.88
2022-11-02T00:48:42.916Z,82.64
2022-11-02T00:51:46.300Z,83.17
2022-11-02T00:54:48.849Z,82.26
2022-11-02T00:57:51.421Z,84.30
2022-11-02T01:00:53.971Z,82.96
2022-11-02T01:03:58.855Z,83.69
2022-11-02T01:07:02.637Z,82.84
2022-11-02T01:10:05.944Z,81.30
2022-11-02T01:13:08.986Z,82.07
2022-11-02T01:16:12.194Z,83.05
2022-11-02T01:19:16.126Z,83.01
2022-11-02T01:22:18.703Z,83.97
2022-11-02T01:25:21.252Z,83.89
2022-11-02T01:28:23.788Z,83.61
2022-11-02T01:31:26.450Z,83.58
2022-11-02T01:34:30.356Z,84.72
2022-11-02T01:37:32.942Z,83.79
2022-11-02T01:40:36.546Z,85.11
2022-11-02T01:43:39.188Z,84.40
2022-11-02T01:46:46.443Z,85.03
2022-11-02T01:49:54.638Z,84.41
2022-11-02T01:52:57.240Z,84.14
2022-11-02T01:56:00.901Z,83.31
2022-11-02T01:59:07.819Z,84.63
2022-11-02T02:02:16.768Z,85.10
2022-11-02T02:05:23.030Z,84.21
2022-11-02T02:08:27.492Z,86.17
2022-11-02T02:11:31.875Z,86.79
2022-11-02T02:14:35.512Z,85.08
2022-11-02T02:17:48.073Z,84.44
2022-11-02T02:21:13.168Z,84.72
2022-11-02T02:24:28.561Z,84.37
2022-11-02T02:27:36.584Z,85.05
2022-11-02T02:30:47.722Z,83.28
2022-11-02T02:33:56.369Z,85.16
2022-11-02T02:37:06.565Z,83.86
2022-11-02T02:40:15.257Z,84.58
2022-11-02T02:43:22.667Z,84.21
2022-11-02T02:46:34.622Z,82.80
2022-11-02T02:49:41.551Z,84.30
2022-11-02T02:52:47.546Z,82.85
2022-11-02T02:55:51.312Z,83.10
2022-11-02T02:58:59.313Z,82.92
2022-11-02T03:02:06.833Z,83.08
2022-11-02T03:05:24.331Z,83.17
2022-11-02T03:08:26.994Z,84.21
2022-11-02T03:11:29.931Z,83.65
2022-11-02T03:14:39.312Z,85.85
2022-11-02T03:17:51.020Z,86.76
2022-11-02T03:21:02.708Z,83.81
2022-11-02T03:24:10.632Z,85.07
2022-11-02T03:27:20.372Z,84.14
2022-11-02T03:30:25.381Z,84.41
2022-11-02T03:33:36.627Z,84.16
2022-11-02T03:36:44.874Z,85.08
2022-11-02T03:39:51.154Z,83.94
2022-11-02T03:42:55.389Z,85.53
2022-11-02T03:46:01.402Z,87.04
2022-11-02T03:49:08.701Z,89.14
2022-11-02T03:52:19.248Z,91.04
2022-11-02T03:55:29.390Z,90.87
2022-11-02T03:58:31.945Z,93.70
2022-11-02T04:01:40.027Z,94.55
2022-11-02T04:04:51.677Z,92.79
2022-11-02T04:08:13.817Z,94.47
2022-11-02T04:11:35.019Z,92.96
2022-11-02T04:14:40.979Z,92.83
2022-11-02T04:18:01.146Z,93.88
2022-11-02T04:21:05.370Z,94.78
2022-11-02T04:24:41.154Z,92.52
2022-11-02T04:27:44.013Z,94.10
2022-11-02T04:30:46.616Z,94.71
2022-11-02T04:33:49.203Z,92.66
2022-11-02T04:36:53.112Z,92.99
2022-11-02T04:39:54.688Z,92.82
2022-11-02T04:42:57.257Z,93.05
2022-11-02T04:45:59.790Z,92.95
2022-11-02T04:49:03.104Z,92.96
2022-11-02T04:52:07.089Z,91.66
2022-11-02T04:55:09.920Z,90.43
2022-11-02T04:58:12.536Z,92.22
2022-11-02T05:01:16.707Z,91.95
2022-11-02T05:04:19.307Z,92.50
2022-11-02T05:07:23.219Z,92.08
2022-11-02T05:10:25.796Z,92.00
2022-11-02T05:13:28.361Z,92.68
2022-11-02T05:16:30.887Z,92.34
2022-11-02T05:19:33.438Z,92.73
2022-11-02T05:22:37.335Z,92.34
2022-11-02T05:25:39.896Z,93.56
2022-11-02T05:28:42.486Z,92.95
2022-11-02T05:31:45.055Z,93.47
2022-11-02T05:34:47.617Z,93.22
2022-11-02T05:37:51.593Z,93.08
2022-11-02T05:40:54.527Z,93.72
2022-11-02T05:43:57.086Z,93.72
2022-11-02T05:46:59.634Z,93.68
2022-11-02T05:50:02.306Z,92.85
2022-11-02T05:53:06.480Z,94.21
2022-11-02T05:56:11.336Z,94.56
2022-11-02T05:59:13.890Z,95.39
2022-11-02T06:02:16.449Z,95.29
2022-11-02T06:05:19.088Z,95.13
2022-11-02T06:08:23.028Z,94.79
2022-11-02T06:11:25.610Z,95.32
2022-11-02T06:14:28.140Z,95.19
2022-11-02T06:17:38.028Z,94.70
2022-11-02T06:20:41.694Z,94.26
2022-11-02T06:23:47.985Z,94.49
2022-11-02T06:26:50.537Z,94.05
2022-11-02T06:29:53.086Z,95.48
2022-11-02T06:32:55.674Z,94.66
2022-11-02T06:35:58.377Z,96.09
2022-11-02T06:39:02.451Z,95.31
2022-11-02T06:42:05.215Z,94.57
2022-11-02T06:45:08.875Z,94.71
2022-11-02T06:48:11.439Z,94.96
2022-11-02T06:51:14.264Z,95.16
2022-11-02T06:54:18.452Z,94.89
2022-11-02T06:57:21.540Z,95.77
2022-11-02T07:00:24.376Z,95.38
2022-11-02T07:03:27.471Z,96.03
2022-11-02T07:06:30.022Z,95.69
2022-11-02T07:09:33.923Z,94.12
2022-11-02T07:12:36.469Z,94.47
2022-11-02T07:15:39.250Z,95.68
2022-11-02T07:18:42.486Z,94.89
2022-11-02T07:21:47.679Z,93.58
2022-11-02T07:24:51.878Z,94.59
2022-11-02T07:27:54.444Z,96.02
2022-11-02T07:30:57.112Z,94.80
2022-11-02T07:33:59.733Z,93.87
2022-11-02T07:37:02.289Z,95.10
2022-11-02T07:40:08.955Z,94.35
2022-11-02T07:43:11.764Z,92.96
2022-11-02T07:46:14.423Z,92.29
2022-11-02T07:49:21.258Z,91.67
2022-11-02T07:52:24.309Z,91.97
2022-11-02T07:55:30.453Z,92.19
2022-11-02T07:58:33.258Z,92.51
2022-11-02T08:01:35.903Z,92.46
2022-11-02T08:04:40.876Z,92.41
2022-11-02T08:07:46.616Z,91.97
2022-11-02T08:10:52.393Z,91.70
2022-11-02T08:13:55.088Z,92.85
2022-11-02T08:16:57.703Z,91.92
2022-11-02T08:20:00.428Z,90.89
2022-11-02T08:23:03.123Z,89.43
2022-11-02T08:26:07.236Z,89.22
2022-11-02T08:29:09.851Z,89.14
2022-11-02T08:32:14.102Z,89.96
2022-11-02T08:35:16.984Z,89.94
2022-11-02T08:38:22.426Z,88.73
2022-11-02T08:41:26.462Z,89.07
2022-11-02T08:44:29.117Z,87.19
2022-11-02T08:47:31.725Z,87.57
2022-11-02T08:50:34.681Z,87.65
2022-11-02T08:53:37.369Z,87.15
2022-11-02T08:56:41.599Z,87.08
2022-11-02T08:59:44.256Z,86.35
2022-11-02T09:02:59.967Z,85.97
2022-11-02T09:06:03.438Z,85.83
2022-11-02T09:09:06.070Z,85.54
2022-11-02T09:12:10.043Z,84.46
2022-11-02T09:15:12.687Z,82.75
2022-11-02T09:18:15.402Z,82.59
2022-11-02T09:21:18.040Z,82.73
2022-11-02T09:24:20.695Z,83.59
2022-11-02T09:27:24.759Z,82.45
2022-11-02T09:30:29.361Z,83.61
2022-11-02T09:33:32.468Z,83.19
2022-11-02T09:36:35.138Z,83.08
2022-11-02T09:39:37.719Z,82.55
2022-11-02T09:42:51.124Z,81.41
2022-11-02T09:45:57.849Z,80.88
2022-11-02T09:49:04.321Z,82.10
2022-11-02T09:52:09.712Z,81.65
2022-11-02T09:55:18.865Z,79.55
2022-11-02T09:58:31.119Z,78.32
2022-11-02T10:01:43.432Z,77.61
2022-11-02T10:05:09.544Z,78.03
2022-11-02T10:08:33.708Z,75.80
2022-11-02T10:11:46.250Z,76.41
2022-11-02T10:15:00.496Z,76.36
2022-11-02T10:18:04.487Z,79.95
2022-11-02T10:21:10.383Z,83.09
2022-11-02T10:24:24.378Z,83.14
2022-11-02T10:27:29.093Z,85.34
2022-11-02T10:30:33.459Z,88.26
2022-11-02T10:33:38.160Z,92.55
2022-11-02T10:36:48.432Z,96.93
2022-11-02T10:40:02.756Z,100.00
2022-11-02T10:43:18.305Z,100.00
2022-11-02T10:46:34.758Z,100.00
2022-11-02T10:50:01.646Z,100.00
2022-11-02T10:53:27.274Z,100.00
2022-11-02T10:56:31.784Z,100.00
2022-11-02T10:59:34.471Z,100.00
2022-11-02T11:02:38.513Z,92.81
2022-11-02T11:05:59.158Z,78.38
2022-11-02T11:09:05.978Z,81.15
2022-11-02T11:12:20.594Z,79.73
2022-11-02T11:22:26.401Z,78.40
2022-11-02T11:25:29.007Z,78.87
2022-11-02T11:28:37.648Z,82.20
2022-11-02T11:31:40.369Z,85.29
2022-11-02T11:34:46.643Z,85.85
2022-11-02T11:37:52.581Z,86.78
2022-11-02T11:40:58.288Z,84.81
2022-11-02T11:44:02.062Z,84.05
2022-11-02T11:47:04.900Z,84.42
2022-11-02T11:50:22.067Z,85.99
2022-11-02T11:53:27.450Z,81.96
2022-11-02T11:56:30.437Z,81.65
2022-11-02T11:59:47.004Z,82.96
2022-11-02T12:03:04.276Z,81.38
2022-11-02T12:06:17.064Z,83.06
2022-11-02T12:09:30.535Z,82.83
2022-11-02T12:12:47.065Z,84.64
2022-11-02T12:16:01.562Z,90.61
2022-11-02T12:19:20.745Z,92.47
2022-11-02T12:22:36.725Z,93.71
2022-11-02T12:25:51.417Z,98.01
2022-11-02T12:29:05.522Z,100.00
2022-11-02T12:32:19.212Z,100.00
2022-11-02T12:35:41.584Z,100.00
2022-11-02T12:38:54.079Z,100.00
2022-11-02T12:42:06.095Z,100.00
2022-11-02T12:45:34.852Z,100.00
2022-11-02T12:48:49.050Z,100.00
2022-11-02T12:51:58.956Z,100.00
2022-11-02T12:55:06.399Z,100.00
2022-11-02T12:58:17.374Z,100.00
2022-11-02T13:01:27.300Z,96.52
2022-11-02T13:04:36.950Z,84.95
2022-11-02T13:07:45.664Z,76.02
2022-11-02T13:10:54.137Z,69.95
2022-11-02T13:13:59.771Z,67.14
2022-11-02T13:17:07.172Z,72.47
2022-11-02T13:20:19.294Z,79.36
2022-11-02T13:26:44.049Z,87.93
2022-11-02T13:29:50.760Z,89.32
2022-11-02T13:32:59.743Z,90.75
2022-11-02T13:36:02.381Z,94.68
2022-11-02T13:39:11.654Z,100.00
2022-11-02T13:42:50.431Z,100.00
2022-11-02T13:46:10.856Z,100.00
2022-11-02T13:49:16.901Z,100.00
2022-11-02T13:52:23.645Z,100.00
2022-11-02T13:55:35.222Z,100.00
2022-11-02T13:58:46.884Z,100.00
2022-11-02T14:01:52.445Z,100.00
2022-11-02T14:04:55.702Z,100.00
2022-11-02T14:08:02.874Z,100.00
2022-11-02T14:11:27.027Z,100.00
2022-11-02T14:14:31.073Z,100.00
2022-11-02T14:18:02.146Z,100.00
2022-11-02T14:21:38.333Z,100.00
2022-11-02T14:24:54.939Z,100.00
2022-11-02T14:27:57.652Z,100.00
2022-11-02T14:31:33.417Z,100.00
2022-11-02T14:35:00.709Z,100.00
2022-11-02T14:38:18.837Z,100.00
2022-11-02T14:41:48.523Z,100.00
2022-11-02T14:45:24.015Z,100.00
2022-11-02T14:48:31.545Z,100.00
2022-11-02T14:51:37.493Z,100.00
2022-11-02T14:54:48.806Z,100.00
2022-11-02T14:57:54.816Z,100.00
2022-11-02T15:01:00.357Z,100.00
2022-11-02T15:04:09.367Z,100.00
2022-11-02T15:07:21.484Z,100.00
2022-11-02T15:10:46.094Z,100.00
2022-11-02T15:13:49.169Z,100.00
2022-11-02T15:16:52.861Z,100.00
2022-11-02T15:20:27.468Z,100.00
2022-11-02T15:23:32.336Z,100.00
2022-11-02T15:26:42.426Z,100.00
2022-11-02T15:29:45.975Z,100.00
2022-11-02T15:32:54.521Z,100.00
2022-11-02T15:36:03.274Z,100.00
2022-11-02T15:39:08.133Z,100.00
2022-11-02T15:42:19.248Z,100.00
2022-11-02T15:45:48.801Z,100.00
2022-11-02T15:48:58.362Z,100.00
2022-11-02T15:52:09.203Z,100.00
2022-11-02T15:55:20.780Z,100.00
2022-11-02T15:58:35.577Z,100.00
2022-11-02T16:01:40.136Z,100.00
2022-11-02T16:04:48.011Z,100.00
2022-11-02T16:08:10.541Z,100.00
2022-11-02T16:11:17.366Z,100.00
2022-11-02T16:14:20.003Z,100.00
2022-11-02T16:17:24.612Z,100.00
2022-11-02T16:20:29.376Z,100.00
2022-11-02T16:23:36.302Z,100.00
2022-11-02T16:26:39.061Z,100.00
2022-11-02T16:29:42.508Z,100.00
2022-11-02T16:32:46.710Z,99.21
2022-11-02T16:35:50.063Z,100.00
2022-11-02T16:38:59.464Z,100.00
2022-11-02T16:42:03.594Z,100.00
2022-11-02T16:45:23.466Z,100.00
2022-11-02T16:48:28.084Z,100.00
2022-11-02T16:51:31.619Z,100.00
2022-11-02T16:54:41.675Z,100.00
2022-11-02T16:57:46.409Z,100.00
2022-11-02T17:01:00.629Z,100.00
2022-11-02T17:04:15.340Z,100.00
2022-11-02T17:07:23.556Z,100.00
2022-11-02T17:10:29.649Z,100.00
2022-11-02T17:13:36.567Z,97.99
2022-11-02T17:17:01.005Z,99.29
2022-11-02T17:20:22.796Z,96.37
2022-11-02T17:23:33.796Z,99.56
2022-11-02T17:26:38.683Z,100.00
2022-11-02T17:29:41.335Z,100.00
2022-11-02T17:32:44.116Z,100.00
2022-11-02T17:35:47.977Z,100.00
2022-11-02T17:38:50.697Z,99.65
2022-11-02T17:42:13.504Z,97.48
2022-11-02T17:45:28.343Z,98.89
2022-11-02T17:48:31.125Z,100.00
2022-11-02T17:51:33.837Z,98.38
2022-11-02T17:54:36.452Z,98.26
2022-11-02T17:57:40.430Z,96.19
2022-11-02T18:00:43.364Z,98.22
2022-11-02T18:03:46.025Z,97.40
2022-11-02T18:06:48.699Z,99.14
2022-11-02T18:09:51.295Z,100.00
2022-11-02T18:12:55.310Z,100.00
2022-11-02T18:15:57.960Z,100.00
2022-11-02T18:19:00.600Z,98.64
2022-11-02T18:22:03.459Z,96.61
2022-11-02T18:25:07.425Z,96.74
2022-11-02T18:28:11.627Z,97.12
2022-11-02T18:31:14.376Z,95.42
2022-11-02T18:34:17.034Z,99.08
2022-11-02T18:37:19.673Z,96.45
2022-11-02T18:40:22.288Z,98.03
2022-11-02T18:43:26.255Z,93.98
2022-11-02T18:46:30.774Z,95.30
2022-11-02T18:49:33.682Z,94.44
2022-11-02T18:52:36.342Z,98.65
2022-11-02T18:55:40.441Z,95.88
2022-11-02T18:58:44.443Z,96.65
2022-11-02T19:01:47.326Z,97.16
2022-11-02T19:04:50.124Z,97.07
2022-11-02T19:08:10.343Z,98.04
2022-11-02T19:11:12.991Z,97.23
2022-11-02T19:14:17.201Z,97.76
2022-11-02T19:17:20.100Z,98.82
2022-11-02T19:20:22.697Z,98.41
2022-11-02T19:23:25.353Z,97.88
2022-11-02T19:26:28.008Z,99.05
2022-11-02T19:29:33.864Z,98.46
2022-11-02T19:32:36.536Z,98.66
2022-11-02T19:35:39.260Z,98.79
2022-11-02T19:38:42.178Z,98.60
2022-11-02T19:41:44.958Z,98.16
2022-11-02T19:44:48.944Z,98.15
2022-11-02T19:47:51.559Z,98.55
2022-11-02T19:50:54.265Z,99.09
2022-11-02T19:53:59.258Z,98.18
2022-11-02T19:57:01.920Z,98.20
2022-11-02T20:00:06.873Z,98.54
2022-11-02T20:03:09.583Z,98.51
2022-11-02T20:06:14.404Z,98.72
2022-11-02T20:09:19.296Z,98.18
2022-11-02T20:12:21.897Z,97.90
2022-11-02T20:15:25.926Z,99.55
2022-11-02T20:18:28.797Z,99.17
2022-11-02T20:21:36.859Z,98.89
2022-11-02T20:24:44.043Z,98.27
2022-11-02T20:27:46.770Z,97.99
2022-11-02T20:30:50.844Z,98.90
2022-11-02T20:33:54.156Z,98.59
2022-11-02T20:36:56.775Z,97.69
2022-11-02T20:39:59.394Z,98.27
2022-11-02T20:43:02.044Z,99.03
2022-11-02T20:52:55.332Z,98.81
2022-11-02T20:55:58.489Z,99.06
2022-11-02T20:59:01.412Z,99.01
2022-11-02T21:02:05.491Z,98.64
2022-11-02T21:05:08.930Z,99.42
2022-11-02T21:08:12.187Z,98.72
2022-11-02T21:11:32.380Z,99.24
2022-11-02T21:14:34.998Z,98.80
2022-11-02T21:17:38.981Z,98.73
2022-11-02T21:20:41.846Z,98.79
2022-11-02T21:23:45.168Z,98.09
2022-11-02T21:26:47.810Z,98.78
2022-11-02T21:29:50.946Z,98.20
2022-11-02T21:32:55.120Z,98.69
2022-11-02T21:35:57.924Z,98.36
2022-11-02T21:39:00.992Z,98.67
2022-11-02T21:42:04.953Z,98.39
2022-11-02T21:45:08.609Z,98.36
2022-11-02T21:48:12.621Z,98.38
2022-11-02T21:51:17.575Z,98.41
2022-11-02T21:54:20.243Z,98.77
2022-11-02T21:57:22.899Z,98.97
2022-11-02T22:00:46.018Z,98.57
2022-11-02T22:03:50.454Z,97.76
2022-11-02T22:06:53.541Z,98.76
2022-11-02T22:09:56.177Z,98.92
2022-11-02T22:13:16.085Z,97.69
2022-11-02T22:16:21.869Z,97.77
2022-11-02T22:19:25.862Z,97.26
2022-11-02T22:22:28.624Z,97.86
2022-11-02T22:25:31.245Z,97.64
2022-11-02T22:28:37.266Z,97.34
2022-11-02T22:31:41.853Z,97.91
2022-11-02T22:34:46.844Z,97.82
2022-11-02T22:38:07.174Z,97.12
2022-11-02T22:41:09.831Z,96.82
2022-11-02T22:44:14.061Z,97.52
2022-11-02T22:47:16.740Z,96.83
2022-11-02T22:50:23.726Z,96.84
2022-11-02T22:53:29.480Z,96.47
2022-11-02T22:56:33.178Z,96.64
2022-11-02T22:59:36.663Z,97.11
2022-11-02T23:02:39.294Z,97.39
2022-11-02T23:05:44.588Z,96.57
2022-11-02T23:08:47.238Z,95.74
2022-11-02T23:11:49.927Z,94.88
2022-11-02T23:14:52.562Z,95.11
2022-11-02T23:17:55.217Z,96.56
2022-11-02T23:20:58.238Z,97.09
2022-11-02T23:24:18.793Z,96.83
2022-11-02T23:27:21.518Z,96.94
2022-11-02T23:30:42.397Z,96.69
2022-11-02T23:33:45.052Z,96.10
2022-11-02T23:36:48.058Z,94.80
2022-11-02T23:39:50.665Z,96.66
2022-11-02T23:42:53.244Z,96.43
2022-11-02T23:45:58.403Z,96.07
2022-11-02T23:49:01.021Z,96.19
2022-11-02T23:52:33.804Z,95.77
2022-11-02T23:55:54.242Z,96.27
2022-11-02T23:59:07.059Z,96.07
